createdAt,value
2023-06-05T00:00:18.218Z,86.97
2023-06-05T00:02:44.970Z,87.31
2023-06-05T00:05:12.912Z,87.64
2023-06-05T00:07:39.467Z,87.24
2023-06-05T00:10:09.929Z,87.12
2023-06-05T00:12:38.442Z,87.49
2023-06-05T00:15:07.045Z,87.34
2023-06-05T00:17:34.803Z,87.53
2023-06-05T00:20:01.387Z,87.31
2023-06-05T00:22:30.021Z,87.18
2023-06-05T00:24:57.624Z,87.57
2023-06-05T00:27:24.589Z,87.06
2023-06-05T00:29:51.426Z,87.98
2023-06-05T00:34:44.550Z,87.88
2023-06-05T00:37:12.274Z,87.74
2023-06-05T00:39:38.854Z,87.15
2023-06-05T00:42:07.572Z,87.29
2023-06-05T00:44:35.625Z,87.57
2023-06-05T00:47:04.871Z,87.50
2023-06-05T00:49:31.830Z,86.82
2023-06-05T00:51:58.957Z,87.52
2023-06-05T00:54:28.233Z,87.52
2023-06-05T00:56:55.553Z,87.38
2023-06-05T00:59:23.811Z,87.64
2023-06-05T01:01:50.537Z,87.79
2023-06-05T01:04:17.116Z,88.05
2023-06-05T01:06:43.738Z,87.38
2023-06-05T01:09:11.203Z,87.10
2023-06-05T01:11:59.382Z,87.34
2023-06-05T01:14:29.291Z,87.49
2023-06-05T01:16:58.166Z,86.97
2023-06-05T01:19:27.246Z,87.26
2023-06-05T01:21:53.796Z,86.94
2023-06-05T01:24:20.442Z,87.77
2023-06-05T01:27:03.049Z,87.58
2023-06-05T01:30:02.014Z,87.63
2023-06-05T01:32:58.917Z,87.13
2023-06-05T01:35:26.667Z,87.39
2023-06-05T01:37:56.766Z,87.90
2023-06-05T01:40:28.067Z,87.58
2023-06-05T01:42:56.202Z,87.28
2023-06-05T01:45:23.388Z,87.24
2023-06-05T01:47:54.017Z,87.00
2023-06-05T01:50:20.652Z,87.58
2023-06-05T01:52:50.512Z,86.60
2023-06-05T01:55:23.132Z,87.60
2023-06-05T01:57:50.604Z,87.14
2023-06-05T02:00:20.363Z,87.22
2023-06-05T02:02:49.698Z,87.35
2023-06-05T02:05:18.181Z,87.12
2023-06-05T02:07:50.886Z,86.80
2023-06-05T02:10:17.539Z,87.23
2023-06-05T02:12:44.101Z,87.50
2023-06-05T02:17:37.395Z,87.04
2023-06-05T02:20:04.428Z,87.20
2023-06-05T02:22:31.596Z,87.32
2023-06-05T02:24:58.138Z,87.47
2023-06-05T02:27:25.167Z,87.20
2023-06-05T02:29:51.653Z,87.16
2023-06-05T02:32:20.383Z,87.16
2023-06-05T02:34:46.983Z,87.96
2023-06-05T02:37:15.455Z,87.46
2023-06-05T02:39:42.019Z,87.54
2023-06-05T02:42:08.674Z,87.53
2023-06-05T02:44:35.369Z,87.59
2023-06-05T02:47:03.148Z,87.83
2023-06-05T02:49:29.703Z,87.28
2023-06-05T02:51:56.382Z,87.51
2023-06-05T02:54:22.974Z,87.49
2023-06-05T02:56:50.597Z,87.30
2023-06-05T02:59:17.149Z,87.32
2023-06-05T03:01:45.317Z,87.68
2023-06-05T03:04:13.084Z,87.65
2023-06-05T03:06:40.132Z,87.86
2023-06-05T03:09:06.784Z,87.91
2023-06-05T03:11:35.756Z,87.78
2023-06-05T03:14:03.551Z,88.38
2023-06-05T03:16:30.290Z,88.84
2023-06-05T03:18:57.364Z,88.19
2023-06-05T03:21:26.740Z,88.21
2023-06-05T03:23:54.848Z,88.52
2023-06-05T03:26:21.468Z,89.03
2023-06-05T03:28:48.010Z,88.83
2023-06-05T03:31:15.842Z,89.13
2023-06-05T03:33:42.418Z,88.82
2023-06-05T03:36:11.167Z,89.09
2023-06-05T03:38:40.442Z,88.72
2023-06-05T03:41:11.811Z,89.11
2023-06-05T03:43:38.585Z,89.04
2023-06-05T03:46:06.317Z,89.63
2023-06-05T03:48:32.946Z,89.76
2023-06-05T03:51:00.255Z,89.69
2023-06-05T03:53:26.903Z,90.17
2023-06-05T03:55:54.019Z,89.46
2023-06-05T03:58:20.812Z,89.81
2023-06-05T04:00:49.006Z,89.60
2023-06-05T04:03:16.991Z,89.42
2023-06-05T04:05:43.664Z,89.02
2023-06-05T04:08:11.206Z,88.61
2023-06-05T04:10:38.476Z,88.21
2023-06-05T04:13:05.369Z,89.23
2023-06-05T04:15:32.040Z,88.05
2023-06-05T04:17:58.608Z,87.52
2023-06-05T04:20:25.208Z,88.12
2023-06-05T04:22:52.830Z,87.59
2023-06-05T04:25:19.467Z,88.49
2023-06-05T04:27:47.703Z,87.69
2023-06-05T04:30:15.197Z,86.64
2023-06-05T04:32:43.109Z,87.49
2023-06-05T04:35:17.825Z,87.35
2023-06-05T04:37:44.357Z,86.89
2023-06-05T04:40:11.265Z,86.65
2023-06-05T04:42:38.012Z,86.47
2023-06-05T04:45:08.818Z,87.04
2023-06-05T04:47:35.636Z,86.71
2023-06-05T04:50:04.664Z,86.78
2023-06-05T04:52:38.063Z,87.11
2023-06-05T04:55:04.679Z,86.44
2023-06-05T04:57:31.254Z,87.01
2023-06-05T04:59:57.926Z,87.58
2023-06-05T05:02:27.166Z,86.61
2023-06-05T05:04:53.748Z,85.83
2023-06-05T05:07:20.291Z,86.17
2023-06-05T05:09:46.884Z,85.52
2023-06-05T05:12:13.511Z,84.84
2023-06-05T05:14:40.180Z,85.69
2023-06-05T05:19:32.016Z,85.83
2023-06-05T05:21:58.750Z,85.20
2023-06-05T05:24:28.333Z,84.92
2023-06-05T05:26:55.973Z,85.36
2023-06-05T05:29:22.612Z,85.45
2023-06-05T05:31:49.354Z,84.02
2023-06-05T05:34:15.898Z,85.61
2023-06-05T05:36:42.515Z,85.40
2023-06-05T05:39:09.185Z,85.98
2023-06-05T05:41:37.700Z,85.48
2023-06-05T05:44:04.265Z,85.19
2023-06-05T05:46:30.925Z,84.30
2023-06-05T05:49:00.841Z,83.15
2023-06-05T05:51:27.365Z,85.24
2023-06-05T05:53:56.622Z,84.54
2023-06-05T05:56:23.409Z,83.32
2023-06-05T05:58:49.972Z,84.28
2023-06-05T06:01:16.580Z,84.51
2023-06-05T06:03:43.295Z,84.12
2023-06-05T06:06:09.880Z,83.94
2023-06-05T06:08:36.590Z,84.17
2023-06-05T06:11:04.252Z,83.36
2023-06-05T06:13:30.844Z,81.59
2023-06-05T06:15:57.427Z,82.05
2023-06-05T06:18:24.490Z,83.06
2023-06-05T06:20:51.180Z,82.51
2023-06-05T06:23:17.820Z,80.85
2023-06-05T06:25:44.962Z,81.83
2023-06-05T06:28:13.797Z,82.11
2023-06-05T06:30:40.421Z,80.98
2023-06-05T06:33:08.206Z,81.39
2023-06-05T06:35:35.897Z,81.56
2023-06-05T06:38:03.304Z,81.89
2023-06-05T06:40:30.046Z,81.28
2023-06-05T06:42:56.576Z,80.30
2023-06-05T06:45:23.184Z,80.84
2023-06-05T06:48:06.652Z,81.69
2023-06-05T06:50:34.597Z,80.39
2023-06-05T06:53:03.631Z,80.99
2023-06-05T06:55:31.361Z,81.37
2023-06-05T06:57:57.976Z,79.30
2023-06-05T07:00:24.858Z,79.19
2023-06-05T07:02:51.909Z,79.49
2023-06-05T07:05:18.722Z,79.61
2023-06-05T07:07:45.586Z,79.48
2023-06-05T07:10:12.485Z,79.64
2023-06-05T07:12:38.985Z,79.35
2023-06-05T07:15:05.975Z,80.20
2023-06-05T07:17:32.549Z,79.15
2023-06-05T07:19:59.549Z,79.19
2023-06-05T07:22:27.150Z,79.52
2023-06-05T07:24:53.725Z,78.02
2023-06-05T07:27:20.780Z,78.38
2023-06-05T07:29:50.421Z,79.10
2023-06-05T07:32:19.182Z,77.02
2023-06-05T07:34:45.777Z,77.86
2023-06-05T07:37:12.300Z,77.21
2023-06-05T07:39:39.388Z,78.39
2023-06-05T07:42:06.136Z,74.04
2023-06-05T07:44:32.771Z,75.06
2023-06-05T07:47:00.970Z,77.13
2023-06-05T07:49:34.327Z,74.94
2023-06-05T07:52:01.756Z,75.57
2023-06-05T07:54:28.426Z,72.43
2023-06-05T07:56:55.040Z,73.71
2023-06-05T07:59:21.680Z,74.14
2023-06-05T08:01:49.344Z,73.25
2023-06-05T08:04:16.733Z,74.99
2023-06-05T08:06:43.448Z,72.06
2023-06-05T08:09:10.748Z,72.57
2023-06-05T08:11:41.066Z,73.01
2023-06-05T08:14:07.668Z,69.18
2023-06-05T08:16:36.118Z,74.62
2023-06-05T08:19:03.377Z,68.13
2023-06-05T08:23:58.262Z,67.78
2023-06-05T08:26:25.156Z,66.82
2023-06-05T08:28:54.065Z,66.23
2023-06-05T08:31:21.392Z,69.49
2023-06-05T08:33:48.112Z,66.46
2023-06-05T08:36:14.715Z,66.16
2023-06-05T08:38:42.633Z,69.37
2023-06-05T08:41:10.238Z,66.79
2023-06-05T08:43:43.493Z,64.20
2023-06-05T08:46:11.542Z,67.93
2023-06-05T08:48:50.579Z,64.72
2023-06-05T08:51:27.114Z,64.78
2023-06-05T08:54:06.617Z,64.29
2023-06-05T08:56:33.332Z,64.87
2023-06-05T08:59:00.661Z,67.28
2023-06-05T09:01:27.804Z,64.28
2023-06-05T09:03:54.477Z,64.47
2023-06-05T09:06:21.183Z,63.32
2023-06-05T09:08:47.841Z,62.60
2023-06-05T09:11:24.213Z,61.69
2023-06-05T09:13:55.475Z,62.60
2023-06-05T09:16:23.639Z,62.34
2023-06-05T09:18:55.381Z,63.75
2023-06-05T09:21:22.452Z,60.45
2023-06-05T09:23:49.229Z,59.84
2023-06-05T09:26:15.866Z,57.47
2023-06-05T09:28:54.819Z,59.33
2023-06-05T09:31:29.181Z,58.26
2023-06-05T09:33:56.670Z,59.26
2023-06-05T09:36:25.443Z,61.92
2023-06-05T09:38:53.194Z,59.08
2023-06-05T09:41:19.738Z,60.12
2023-06-05T09:43:46.244Z,60.52
2023-06-05T09:46:16.603Z,58.94
2023-06-05T09:48:50.865Z,60.45
2023-06-05T09:51:18.218Z,61.25
2023-06-05T09:53:53.872Z,61.24
2023-06-05T09:59:19.615Z,60.42
2023-06-05T10:01:48.022Z,58.56
2023-06-05T10:04:15.390Z,61.68
2023-06-05T10:06:46.657Z,61.79
2023-06-05T10:09:15.700Z,59.19
2023-06-05T10:11:42.837Z,59.00
2023-06-05T10:14:10.452Z,60.04
2023-06-05T10:16:37.862Z,57.33
2023-06-05T10:19:05.312Z,58.01
2023-06-05T10:21:33.153Z,56.67
2023-06-05T10:24:06.526Z,57.64
2023-06-05T10:26:58.421Z,58.28
2023-06-05T10:30:01.661Z,59.25
2023-06-05T10:32:39.071Z,57.86
2023-06-05T10:35:20.698Z,58.26
2023-06-05T10:38:26.441Z,58.42
2023-06-05T10:40:57.817Z,62.36
2023-06-05T10:43:48.681Z,58.62
2023-06-05T10:46:41.406Z,58.05
2023-06-05T10:49:11.520Z,58.45
2023-06-05T10:51:49.118Z,57.66
2023-06-05T10:54:28.325Z,60.42
2023-06-05T10:57:05.001Z,57.72
2023-06-05T10:59:40.948Z,57.55
2023-06-05T11:02:08.021Z,57.10
2023-06-05T11:04:50.269Z,56.24
2023-06-05T11:07:21.972Z,54.78
2023-06-05T11:10:24.322Z,58.64
2023-06-05T11:12:55.897Z,57.14
2023-06-05T11:15:42.018Z,57.11
2023-06-05T11:18:28.756Z,57.83
2023-06-05T11:20:59.437Z,56.93
2023-06-05T11:26:42.759Z,58.20
2023-06-05T11:29:16.718Z,57.69
2023-06-05T11:31:46.763Z,59.47
2023-06-05T11:34:15.757Z,59.53
2023-06-05T11:36:42.601Z,58.21
2023-06-05T11:39:09.638Z,58.88
2023-06-05T11:41:39.966Z,59.06
2023-06-05T11:44:06.621Z,60.15
2023-06-05T11:46:43.757Z,58.53
2023-06-05T11:49:25.042Z,58.73
2023-06-05T11:51:55.174Z,60.04
2023-06-05T11:54:32.814Z,61.06
2023-06-05T11:57:02.932Z,59.17
2023-06-05T11:59:29.688Z,58.98
2023-06-05T12:01:56.362Z,59.67
2023-06-05T12:04:23.415Z,59.90
2023-06-05T12:06:52.095Z,60.47
2023-06-05T12:09:19.002Z,59.87
2023-06-05T12:11:50.720Z,59.36
2023-06-05T12:14:33.584Z,60.52
2023-06-05T12:17:01.954Z,60.11
2023-06-05T12:19:28.908Z,59.76
2023-06-05T12:22:08.070Z,58.97
2023-06-05T12:24:34.577Z,59.58
2023-06-05T12:27:05.361Z,59.29
2023-06-05T12:29:38.007Z,59.86
2023-06-05T12:32:21.988Z,59.10
2023-06-05T12:34:57.879Z,61.56
2023-06-05T12:37:32.401Z,59.30
2023-06-05T12:40:00.515Z,60.98
2023-06-05T12:44:52.813Z,61.38
2023-06-05T12:47:20.846Z,62.06
2023-06-05T12:49:47.789Z,61.04
2023-06-05T12:52:14.495Z,60.49
2023-06-05T12:54:41.055Z,60.89
2023-06-05T12:57:08.516Z,59.05
2023-06-05T12:59:36.544Z,60.43
2023-06-05T13:02:04.084Z,60.34
2023-06-05T13:04:36.122Z,58.11
2023-06-05T13:07:04.687Z,57.78
2023-06-05T13:09:34.965Z,59.06
2023-06-05T13:12:04.987Z,58.00
2023-06-05T13:14:33.636Z,57.76
2023-06-05T13:17:02.261Z,58.83
2023-06-05T13:19:30.128Z,59.56
2023-06-05T13:21:58.013Z,58.08
2023-06-05T13:24:27.744Z,57.80
2023-06-05T13:26:54.358Z,57.53
2023-06-05T13:29:20.985Z,58.61
2023-06-05T13:31:47.624Z,58.06
2023-06-05T13:34:15.188Z,58.23
2023-06-05T13:36:41.732Z,58.58
2023-06-05T13:39:08.333Z,58.80
2023-06-05T13:41:35.022Z,58.40
2023-06-05T13:44:01.861Z,59.48
2023-06-05T13:46:28.541Z,58.99
2023-06-05T13:48:55.094Z,58.77
2023-06-05T13:51:22.194Z,58.45
2023-06-05T13:53:48.878Z,58.85
2023-06-05T13:56:15.734Z,58.53
2023-06-05T13:58:42.323Z,58.78
2023-06-05T14:01:09.339Z,58.88
2023-06-05T14:03:37.468Z,58.62
2023-06-05T14:06:04.293Z,59.29
2023-06-05T14:08:33.549Z,59.49
2023-06-05T14:11:01.243Z,58.71
2023-06-05T14:13:27.801Z,57.76
2023-06-05T14:18:20.823Z,59.10
2023-06-05T14:20:47.473Z,58.44
2023-06-05T14:23:14.158Z,59.77
2023-06-05T14:25:40.815Z,59.35
2023-06-05T14:28:07.491Z,59.06
2023-06-05T14:30:35.138Z,59.42
2023-06-05T14:33:01.789Z,59.51
2023-06-05T14:35:28.874Z,60.15
2023-06-05T14:37:56.501Z,60.29
2023-06-05T14:40:23.107Z,60.87
2023-06-05T14:42:51.095Z,60.48
2023-06-05T14:45:18.438Z,60.87
2023-06-05T14:47:45.293Z,60.17
2023-06-05T14:50:12.960Z,61.01
2023-06-05T14:52:40.667Z,61.90
2023-06-05T14:55:08.741Z,61.95
2023-06-05T14:57:39.091Z,61.74
2023-06-05T15:00:06.680Z,61.68
2023-06-05T15:02:33.581Z,61.87
2023-06-05T15:05:01.416Z,61.29
2023-06-05T15:07:44.174Z,61.68
2023-06-05T15:10:12.557Z,61.42
2023-06-05T15:12:39.375Z,61.27
2023-06-05T15:17:39.415Z,61.60
2023-06-05T15:20:07.707Z,61.45
2023-06-05T15:22:35.217Z,61.08
2023-06-05T15:25:01.881Z,62.64
2023-06-05T15:27:29.057Z,62.10
2023-06-05T15:29:58.446Z,62.24
2023-06-05T15:32:25.732Z,61.95
2023-06-05T15:34:52.428Z,63.08
2023-06-05T15:37:21.740Z,62.51
2023-06-05T15:42:14.334Z,61.26
2023-06-05T15:44:41.383Z,60.76
2023-06-05T15:47:08.761Z,60.93
2023-06-05T15:49:35.509Z,61.24
2023-06-05T15:52:02.705Z,60.94
2023-06-05T15:54:46.169Z,60.88
2023-06-05T15:57:19.827Z,59.62
2023-06-05T15:59:47.016Z,59.23
2023-06-05T16:02:13.721Z,60.01
2023-06-05T16:04:43.010Z,60.67
2023-06-05T16:07:11.211Z,60.69
2023-06-05T16:09:38.369Z,60.99
2023-06-05T16:12:05.441Z,62.03
2023-06-05T16:14:32.287Z,62.96
2023-06-05T16:16:59.705Z,62.74
2023-06-05T16:19:26.702Z,63.02
2023-06-05T16:21:53.388Z,62.78
2023-06-05T16:24:19.964Z,62.89
2023-06-05T16:26:46.472Z,62.58
2023-06-05T16:29:13.130Z,62.90
2023-06-05T16:31:39.789Z,63.55
2023-06-05T16:34:13.828Z,64.13
2023-06-05T16:36:41.817Z,64.27
2023-06-05T16:39:09.478Z,64.15
2023-06-05T16:41:36.104Z,64.63
2023-06-05T16:44:03.198Z,65.08
2023-06-05T16:46:29.940Z,65.10
2023-06-05T16:48:59.232Z,64.98
2023-06-05T16:51:25.808Z,65.59
2023-06-05T16:53:52.450Z,64.99
2023-06-05T16:56:19.123Z,64.98
2023-06-05T16:58:47.268Z,65.37
2023-06-05T17:04:19.172Z,65.23
2023-06-05T17:06:46.270Z,65.78
2023-06-05T17:09:13.391Z,65.72
2023-06-05T17:11:40.403Z,65.85
2023-06-05T17:14:07.434Z,66.35
2023-06-05T17:16:36.442Z,66.62
2023-06-05T17:19:03.816Z,66.83
2023-06-05T17:21:31.251Z,66.84
2023-06-05T17:23:58.075Z,66.59
2023-06-05T17:26:29.588Z,65.95
2023-06-05T17:28:59.003Z,66.93
2023-06-05T17:31:31.061Z,66.41
2023-06-05T17:34:02.870Z,66.94
2023-06-05T17:36:30.104Z,66.93
2023-06-05T17:38:56.957Z,67.09
2023-06-05T17:41:26.843Z,67.26
2023-06-05T17:43:54.613Z,67.58
2023-06-05T17:46:21.844Z,67.97
2023-06-05T17:48:48.546Z,68.25
2023-06-05T17:51:16.637Z,68.26
2023-06-05T17:53:46.005Z,68.22
2023-06-05T17:56:16.366Z,68.43
2023-06-05T17:58:44.308Z,68.23
2023-06-05T18:01:14.342Z,68.51
2023-06-05T18:03:44.278Z,68.89
2023-06-05T18:06:11.236Z,69.24
2023-06-05T18:08:38.988Z,69.39
2023-06-05T18:11:05.684Z,69.48
2023-06-05T18:13:33.378Z,69.74
2023-06-05T18:15:59.926Z,70.11
2023-06-05T18:18:29.014Z,70.05
2023-06-05T18:23:21.905Z,69.88
2023-06-05T18:25:48.600Z,70.06
2023-06-05T18:28:16.419Z,70.05
2023-06-05T18:30:43.050Z,70.70
2023-06-05T18:33:09.629Z,70.50
2023-06-05T18:35:37.107Z,70.77
2023-06-05T18:38:05.062Z,70.83
2023-06-05T18:40:31.710Z,71.39
2023-06-05T18:42:58.303Z,71.50
2023-06-05T18:45:25.105Z,71.79
2023-06-05T18:47:51.785Z,71.54
2023-06-05T18:50:20.094Z,71.52
2023-06-05T18:52:46.943Z,71.88
2023-06-05T18:55:14.533Z,72.32
2023-06-05T18:57:44.309Z,72.00
2023-06-05T19:00:17.040Z,72.07
2023-06-05T19:02:44.634Z,72.20
2023-06-05T19:05:12.670Z,72.78
2023-06-05T19:07:41.174Z,72.74
2023-06-05T19:10:08.196Z,72.93
2023-06-05T19:12:37.499Z,73.22
2023-06-05T19:15:05.550Z,73.44
2023-06-05T19:17:34.168Z,73.63
2023-06-05T19:20:00.745Z,73.96
2023-06-05T19:22:27.406Z,74.37
2023-06-05T19:24:56.624Z,74.41
2023-06-05T19:27:23.156Z,74.17
2023-06-05T19:29:52.472Z,74.76
2023-06-05T19:32:19.562Z,75.08
2023-06-05T19:34:46.612Z,74.78
2023-06-05T19:37:14.045Z,74.77
2023-06-05T19:39:41.487Z,75.16
2023-06-05T19:42:08.502Z,75.01
2023-06-05T19:47:25.109Z,75.07
2023-06-05T19:49:51.668Z,75.65
2023-06-05T19:52:18.230Z,75.97
2023-06-05T19:54:45.009Z,76.14
2023-06-05T19:57:11.536Z,75.50
2023-06-05T19:59:38.190Z,76.00
2023-06-05T20:02:05.963Z,76.42
2023-06-05T20:04:32.560Z,75.73
2023-06-05T20:06:59.103Z,75.45
2023-06-05T20:09:25.711Z,75.57
2023-06-05T20:11:52.394Z,74.94
2023-06-05T20:14:20.234Z,75.07
2023-06-05T20:16:46.934Z,75.59
2023-06-05T20:19:13.508Z,75.06
2023-06-05T20:21:40.103Z,75.01
2023-06-05T20:24:06.907Z,74.90
2023-06-05T20:26:34.732Z,75.03
2023-06-05T20:29:01.345Z,74.93
2023-06-05T20:31:28.463Z,74.23
2023-06-05T20:33:54.976Z,74.65
2023-06-05T20:36:22.213Z,74.72
2023-06-05T20:38:48.902Z,75.14
2023-06-05T20:41:15.739Z,75.07
2023-06-05T20:43:42.639Z,74.96
2023-06-05T20:46:09.487Z,75.07
2023-06-05T20:48:38.729Z,74.87
2023-06-05T20:51:05.962Z,74.81
2023-06-05T20:53:32.598Z,74.84
2023-06-05T20:55:59.186Z,75.15
2023-06-05T20:58:27.139Z,74.88
2023-06-05T21:00:54.460Z,75.52
2023-06-05T21:03:21.138Z,75.44
2023-06-05T21:05:47.706Z,75.54
2023-06-05T21:08:14.275Z,75.27
2023-06-05T21:10:40.788Z,75.65
2023-06-05T21:13:10.537Z,76.03
2023-06-05T21:15:38.335Z,76.14
2023-06-05T21:18:05.568Z,76.37
2023-06-05T21:20:37.175Z,76.19
2023-06-05T21:23:05.458Z,75.85
2023-06-05T21:25:32.460Z,75.98
2023-06-05T21:28:06.345Z,76.45
2023-06-05T21:30:33.584Z,76.17
2023-06-05T21:33:00.272Z,76.43
2023-06-05T21:35:26.733Z,76.47
2023-06-05T21:37:56.337Z,77.20
2023-06-05T21:42:48.470Z,77.23
2023-06-05T21:45:15.204Z,77.83
2023-06-05T21:47:42.530Z,77.77
2023-06-05T21:50:09.437Z,78.28
2023-06-05T21:52:36.625Z,78.18
2023-06-05T21:55:03.512Z,79.04
2023-06-05T21:57:30.114Z,78.75
2023-06-05T21:59:56.648Z,78.96
2023-06-05T22:02:23.705Z,78.60
2023-06-05T22:04:50.363Z,79.26
2023-06-05T22:07:16.921Z,78.84
2023-06-05T22:09:43.517Z,78.79
2023-06-05T22:12:10.134Z,80.03
2023-06-05T22:14:37.932Z,79.21
2023-06-05T22:17:04.707Z,80.18
2023-06-05T22:19:31.233Z,78.97
2023-06-05T22:21:58.690Z,78.81
2023-06-05T22:24:25.495Z,80.38
2023-06-05T22:26:52.223Z,78.97
2023-06-05T22:29:19.187Z,80.09
2023-06-05T22:31:45.743Z,80.43
2023-06-05T22:34:12.443Z,80.07
2023-06-05T22:36:39.270Z,81.05
2023-06-05T22:39:05.872Z,80.94
2023-06-05T22:41:32.397Z,81.29
2023-06-05T22:43:58.935Z,81.20
2023-06-05T22:46:25.649Z,80.86
2023-06-05T22:48:52.141Z,80.65
2023-06-05T22:51:20.240Z,81.55
2023-06-05T22:53:47.324Z,81.33
2023-06-05T22:56:14.330Z,81.38
2023-06-05T22:58:40.925Z,80.94
2023-06-05T23:01:07.626Z,80.21
2023-06-05T23:03:34.103Z,80.11
2023-06-05T23:06:02.572Z,79.68
2023-06-05T23:08:30.235Z,80.24
2023-06-05T23:10:57.204Z,79.99
2023-06-05T23:16:14.133Z,79.51
2023-06-05T23:18:40.717Z,79.20
2023-06-05T23:21:14.493Z,79.71
2023-06-05T23:23:41.457Z,79.56
2023-06-05T23:26:08.207Z,80.05
2023-06-05T23:28:34.847Z,79.97
2023-06-05T23:31:01.586Z,80.14
2023-06-05T23:33:28.134Z,80.59
2023-06-05T23:35:56.201Z,80.59
2023-06-05T23:38:23.859Z,81.40
2023-06-05T23:40:51.808Z,80.92
2023-06-05T23:43:19.429Z,81.15
2023-06-05T23:45:46.808Z,81.38
2023-06-05T23:48:13.418Z,82.31
2023-06-05T23:50:40.088Z,83.64
2023-06-05T23:53:06.668Z,84.00
2023-06-05T23:55:33.188Z,85.13
2023-06-05T23:57:59.799Z,85.25
